Bakerville, South Dakota
Current Conditions -  °F | °C
As of 7:53 AM on Saturday 25 Oct 2014 (Local Time) from KCUT Reporting Station
Clear Clear  
Wind Chill: 32°   Ceiling: Unl
Heat Index: 36°   Visibility: 10mi
Dew Point: 28°   Wind: 5mph
Humidity: 73%   Direction: 330°NNW
Pressure: 30.21"   Gusts: NA
Location:  43.6653°N, 103.766°W
Report Text: KCUT 251353Z AUTO 33004KT 10SM CLR 02/M02 A3021 RMK AO2 SLP219 T00221022
Loading
Personal Weather Stations






























Interactive Weather Map New forecast layout! Learn more

10-Day Weather Forecast

Advertisements
Track Severe Weather on mobile